createdAt,value
2023-04-24T00:01:57.376Z,10.10
2023-04-24T00:04:27.000Z,10.20
2023-04-24T00:06:58.121Z,10.10
2023-04-24T00:09:25.610Z,10.20
2023-04-24T00:11:53.179Z,10.20
2023-04-24T00:14:20.035Z,10.30
2023-04-24T00:16:46.928Z,10.10
2023-04-24T00:19:13.834Z,10.10
2023-04-24T00:21:42.663Z,10.00
2023-04-24T00:24:10.126Z,10.10
2023-04-24T00:26:36.905Z,10.10
2023-04-24T00:29:03.744Z,10.20
2023-04-24T00:31:30.752Z,10.20
2023-04-24T00:33:57.500Z,10.00
2023-04-24T00:36:24.423Z,10.00
2023-04-24T00:38:51.170Z,10.00
2023-04-24T00:41:17.971Z,10.00
2023-04-24T00:43:44.936Z,10.00
2023-04-24T00:46:12.500Z,10.00
2023-04-24T00:48:40.952Z,10.00
2023-04-24T00:51:08.100Z,10.00
2023-04-24T00:53:34.919Z,10.00
2023-04-24T00:56:03.649Z,10.00
2023-04-24T00:58:31.657Z,10.00
2023-04-24T01:00:59.549Z,10.00
2023-04-24T01:03:31.326Z,10.00
2023-04-24T01:05:59.155Z,10.10
2023-04-24T01:08:29.293Z,10.10
2023-04-24T01:10:58.406Z,10.10
2023-04-24T01:13:25.485Z,10.10
2023-04-24T01:15:52.632Z,10.10
2023-04-24T01:18:23.457Z,10.10
2023-04-24T01:20:55.756Z,10.20
2023-04-24T01:23:22.535Z,10.20
2023-04-24T01:25:50.996Z,10.20
2023-04-24T01:28:18.574Z,10.10
2023-04-24T01:30:45.865Z,10.10
2023-04-24T01:33:13.633Z,10.10
2023-04-24T01:35:41.634Z,10.20
2023-04-24T01:38:08.349Z,10.10
2023-04-24T01:40:35.907Z,10.10
2023-04-24T01:43:03.407Z,10.20
2023-04-24T01:45:30.274Z,10.20
2023-04-24T01:47:58.575Z,10.30
2023-04-24T01:50:25.708Z,10.30
2023-04-24T01:52:52.605Z,10.30
2023-04-24T01:55:19.461Z,10.20
2023-04-24T01:57:46.524Z,10.30
2023-04-24T02:00:14.417Z,10.30
2023-04-24T02:02:44.313Z,10.40
2023-04-24T02:05:12.570Z,10.30
2023-04-24T02:07:39.328Z,10.40
2023-04-24T02:10:07.001Z,10.40
2023-04-24T02:12:34.522Z,10.50
2023-04-24T02:15:01.415Z,10.50
2023-04-24T02:17:28.237Z,10.50
2023-04-24T02:19:55.024Z,10.40
2023-04-24T02:22:22.173Z,10.40
2023-04-24T02:24:49.028Z,10.40
2023-04-24T02:27:15.942Z,10.40
2023-04-24T02:29:43.015Z,10.30
2023-04-24T02:32:13.047Z,10.30
2023-04-24T02:34:43.023Z,10.40
2023-04-24T02:37:09.759Z,10.40
2023-04-24T02:39:36.539Z,10.30
2023-04-24T02:42:03.817Z,10.30
2023-04-24T02:44:30.523Z,10.30
2023-04-24T02:46:57.245Z,10.30
2023-04-24T02:49:24.002Z,10.30
2023-04-24T02:51:50.729Z,10.30
2023-04-24T02:54:20.051Z,10.40
2023-04-24T02:56:46.848Z,10.30
2023-04-24T02:59:13.608Z,10.20
2023-04-24T03:01:40.700Z,10.20
2023-04-24T03:04:08.089Z,10.20
2023-04-24T03:06:36.426Z,10.10
2023-04-24T03:09:04.521Z,10.20
2023-04-24T03:11:31.271Z,10.20
2023-04-24T03:13:58.018Z,10.20
2023-04-24T03:16:24.855Z,10.20
2023-04-24T03:18:51.660Z,10.10
2023-04-24T03:21:18.551Z,10.10
2023-04-24T03:23:45.357Z,10.10
2023-04-24T03:26:12.199Z,10.10
2023-04-24T03:28:38.927Z,10.10
2023-04-24T03:31:05.805Z,10.10
2023-04-24T03:33:32.541Z,10.10
2023-04-24T03:35:59.288Z,10.10
2023-04-24T03:38:26.245Z,10.20
2023-04-24T03:40:52.997Z,10.10
2023-04-24T03:43:19.786Z,10.20
2023-04-24T03:45:46.718Z,10.20
2023-04-24T03:48:13.578Z,10.20
2023-04-24T03:50:40.330Z,10.20
2023-04-24T03:53:07.064Z,10.30
2023-04-24T03:55:33.930Z,10.30
2023-04-24T03:58:00.669Z,10.40
2023-04-24T04:00:27.420Z,10.50
2023-04-24T04:02:54.402Z,10.50
2023-04-24T04:05:21.435Z,10.50
2023-04-24T04:07:48.177Z,10.60
2023-04-24T04:10:15.279Z,10.70
2023-04-24T04:12:43.164Z,10.60
2023-04-24T04:15:10.448Z,10.60
2023-04-24T04:17:38.978Z,10.60
2023-04-24T04:20:15.634Z,10.60
2023-04-24T04:22:44.521Z,10.70
2023-04-24T04:25:14.519Z,10.70
2023-04-24T04:27:42.402Z,10.70
2023-04-24T04:30:10.826Z,10.70
2023-04-24T04:32:38.150Z,10.60
2023-04-24T04:35:05.537Z,10.70
2023-04-24T04:37:36.487Z,10.70
2023-04-24T04:40:07.668Z,10.70
2023-04-24T04:42:35.149Z,10.80
2023-04-24T04:45:03.097Z,10.70
2023-04-24T04:47:33.529Z,10.70
2023-04-24T04:50:00.653Z,10.70
2023-04-24T04:52:28.067Z,10.70
2023-04-24T04:54:54.819Z,10.70
2023-04-24T04:57:21.796Z,10.60
2023-04-24T04:59:48.697Z,10.60
2023-04-24T05:02:15.909Z,10.40
2023-04-24T05:04:43.203Z,10.30
2023-04-24T05:07:10.729Z,10.30
2023-04-24T05:09:38.233Z,10.40
2023-04-24T05:12:05.166Z,10.20
2023-04-24T05:14:31.850Z,10.30
2023-04-24T05:16:58.748Z,10.30
2023-04-24T05:19:26.511Z,10.20
2023-04-24T05:21:55.601Z,10.10
2023-04-24T05:24:22.424Z,10.00
2023-04-24T05:26:49.321Z,9.90
2023-04-24T05:29:16.079Z,9.90
2023-04-24T05:31:42.898Z,9.90
2023-04-24T05:34:11.070Z,9.90
2023-04-24T05:36:37.888Z,9.90
2023-04-24T05:39:08.082Z,9.80
2023-04-24T05:41:35.670Z,9.70
2023-04-24T05:44:02.390Z,9.70
2023-04-24T05:46:29.162Z,9.70
2023-04-24T05:48:55.953Z,9.70
2023-04-24T05:51:22.799Z,9.90
2023-04-24T05:53:49.679Z,10.00
2023-04-24T05:56:16.985Z,10.00
2023-04-24T05:58:43.808Z,10.10
2023-04-24T06:01:10.655Z,10.10
2023-04-24T06:03:40.609Z,10.10
2023-04-24T06:06:09.392Z,10.10
2023-04-24T06:08:37.010Z,10.00
2023-04-24T06:11:04.741Z,10.00
2023-04-24T06:13:31.689Z,10.00
2023-04-24T06:15:58.491Z,9.90
2023-04-24T06:18:25.248Z,9.70
2023-04-24T06:20:52.811Z,9.50
2023-04-24T06:23:19.622Z,9.50
2023-04-24T06:25:46.452Z,9.40
2023-04-24T06:28:13.594Z,9.40
2023-04-24T06:30:40.386Z,9.40
2023-04-24T06:33:19.357Z,9.30
2023-04-24T06:35:46.981Z,9.30
2023-04-24T06:38:13.746Z,9.30
2023-04-24T06:40:40.516Z,9.20
2023-04-24T06:43:07.331Z,9.20
2023-04-24T06:45:34.251Z,9.20
2023-04-24T06:48:01.074Z,9.10
2023-04-24T06:50:27.954Z,9.10
2023-04-24T06:52:54.664Z,9.10
2023-04-24T06:55:21.438Z,9.00
2023-04-24T06:57:48.173Z,9.10
2023-04-24T07:00:15.377Z,9.00
2023-04-24T07:02:42.343Z,9.10
2023-04-24T07:05:09.555Z,9.00
2023-04-24T07:07:38.712Z,9.00
2023-04-24T07:10:06.753Z,9.10
2023-04-24T07:12:33.851Z,9.10
2023-04-24T07:15:01.881Z,9.10
2023-04-24T07:17:28.730Z,9.20
2023-04-24T07:19:55.514Z,9.10
2023-04-24T07:22:22.413Z,9.10
2023-04-24T07:24:49.116Z,9.10
2023-04-24T07:27:16.243Z,9.10
2023-04-24T07:29:43.717Z,9.10
2023-04-24T07:32:13.671Z,9.10
2023-04-24T07:34:40.990Z,9.10
2023-04-24T07:37:07.836Z,9.20
2023-04-24T07:39:35.228Z,9.30
2023-04-24T07:42:02.726Z,9.20
2023-04-24T07:44:29.513Z,9.20
2023-04-24T07:46:57.417Z,9.20
2023-04-24T07:49:24.660Z,9.20
2023-04-24T07:51:51.429Z,9.20
2023-04-24T07:54:20.562Z,9.20
2023-04-24T07:56:47.349Z,9.20
2023-04-24T07:59:14.096Z,9.20
2023-04-24T08:01:40.983Z,9.10
2023-04-24T08:04:08.724Z,9.10
2023-04-24T08:06:36.637Z,9.10
2023-04-24T08:09:03.880Z,9.10
2023-04-24T08:11:30.829Z,8.90
2023-04-24T08:13:57.725Z,9.00
2023-04-24T08:16:25.144Z,8.90
2023-04-24T08:18:54.041Z,9.00
2023-04-24T08:21:21.676Z,8.90
2023-04-24T08:23:48.472Z,9.00
2023-04-24T08:26:15.417Z,9.10
2023-04-24T08:28:43.241Z,9.10
2023-04-24T08:31:10.110Z,9.10
2023-04-24T08:33:36.889Z,9.00
2023-04-24T08:36:05.749Z,9.00
2023-04-24T08:38:32.880Z,9.00
2023-04-24T08:41:02.527Z,9.10
2023-04-24T08:43:29.808Z,9.10
2023-04-24T08:45:58.343Z,9.10
2023-04-24T08:48:30.913Z,9.00
2023-04-24T08:51:00.467Z,9.20
2023-04-24T08:53:28.247Z,9.10
2023-04-24T08:55:57.764Z,9.20
2023-04-24T08:58:27.596Z,9.10
2023-04-24T09:01:02.803Z,9.10
2023-04-24T09:03:31.241Z,9.30
2023-04-24T09:05:59.486Z,9.40
2023-04-24T09:08:27.365Z,9.40
2023-04-24T09:10:54.377Z,9.30
2023-04-24T09:13:21.935Z,9.20
2023-04-24T09:15:49.172Z,9.30
2023-04-24T09:18:15.939Z,9.30
2023-04-24T09:21:08.653Z,9.30
2023-04-24T09:23:35.949Z,9.50
2023-04-24T09:26:05.970Z,9.50
2023-04-24T09:28:37.893Z,9.60
2023-04-24T09:31:17.041Z,9.50
2023-04-24T09:34:08.523Z,9.40
2023-04-24T09:36:41.920Z,9.50
2023-04-24T09:39:17.487Z,9.50
2023-04-24T09:41:52.252Z,9.50
2023-04-24T09:44:25.211Z,9.50
2023-04-24T09:47:02.446Z,9.50
2023-04-24T09:49:31.442Z,9.60
2023-04-24T09:52:26.075Z,9.70
2023-04-24T09:54:56.400Z,9.90
2023-04-24T09:57:23.167Z,9.80
2023-04-24T09:59:54.322Z,9.80
2023-04-24T10:02:22.102Z,9.90
2023-04-24T10:05:00.063Z,9.80
2023-04-24T10:07:27.787Z,9.80
2023-04-24T10:09:55.662Z,9.60
2023-04-24T10:12:23.873Z,9.40
2023-04-24T10:14:51.645Z,9.20
2023-04-24T10:17:20.917Z,9.10
2023-04-24T10:19:49.342Z,9.30
2023-04-24T10:22:18.576Z,9.40
2023-04-24T10:24:49.558Z,9.60
2023-04-24T10:27:17.486Z,9.50
2023-04-24T10:29:46.845Z,9.80
2023-04-24T10:32:13.594Z,9.80
2023-04-24T10:34:40.540Z,9.90
2023-04-24T10:37:09.806Z,10.00
2023-04-24T10:39:38.404Z,10.10
2023-04-24T10:42:16.846Z,10.20
2023-04-24T10:44:43.770Z,10.10
2023-04-24T10:47:16.772Z,10.30
2023-04-24T10:49:44.208Z,10.30
2023-04-24T10:52:12.349Z,10.40
2023-04-24T10:54:41.776Z,10.30
2023-04-24T10:57:31.624Z,10.50
2023-04-24T11:00:20.672Z,10.20
2023-04-24T11:02:51.966Z,10.20
2023-04-24T11:05:21.283Z,10.00
2023-04-24T11:08:15.612Z,9.80
2023-04-24T11:10:48.533Z,9.60
2023-04-24T11:13:25.717Z,9.40
2023-04-24T11:16:16.553Z,9.30
2023-04-24T11:18:47.148Z,9.30
2023-04-24T11:21:17.210Z,9.40
2023-04-24T11:23:44.179Z,9.50
2023-04-24T11:26:26.003Z,9.80
2023-04-24T11:28:52.934Z,9.90
2023-04-24T11:31:40.724Z,9.90
2023-04-24T11:34:17.369Z,9.90
2023-04-24T11:36:49.044Z,9.80
2023-04-24T11:39:16.620Z,10.10
2023-04-24T11:41:43.367Z,10.30
2023-04-24T11:44:12.306Z,10.50
2023-04-24T11:46:41.402Z,10.70
2023-04-24T11:49:08.615Z,10.90
2023-04-24T11:51:47.809Z,11.00
2023-04-24T11:54:19.649Z,11.00
2023-04-24T11:56:48.676Z,10.90
2023-04-24T11:59:15.730Z,10.80
2023-04-24T12:01:50.110Z,10.60
2023-04-24T12:04:20.112Z,10.50
2023-04-24T12:07:03.004Z,10.60
2023-04-24T12:09:40.788Z,10.60
2023-04-24T12:12:07.990Z,10.80
2023-04-24T12:14:51.261Z,10.80
2023-04-24T12:17:18.516Z,10.80
2023-04-24T12:19:49.684Z,11.10
2023-04-24T12:22:16.704Z,11.00
2023-04-24T12:25:06.553Z,11.20
2023-04-24T12:27:34.045Z,11.10
2023-04-24T12:30:04.431Z,11.00
2023-04-24T12:32:31.315Z,11.00
2023-04-24T12:34:59.121Z,10.80
2023-04-24T12:37:33.235Z,10.60
2023-04-24T12:40:14.353Z,10.70
2023-04-24T12:42:50.601Z,10.70
2023-04-24T12:45:20.018Z,10.50
2023-04-24T12:47:49.439Z,10.30
2023-04-24T12:50:17.320Z,10.20
2023-04-24T12:52:44.687Z,10.10
2023-04-24T12:55:13.330Z,10.00
2023-04-24T12:57:41.432Z,10.10
2023-04-24T13:00:11.053Z,10.20
2023-04-24T13:02:38.517Z,10.00
2023-04-24T13:05:06.934Z,9.90
2023-04-24T13:07:35.030Z,9.70
2023-04-24T13:10:01.807Z,9.80
2023-04-24T13:12:28.663Z,9.90
2023-04-24T13:14:55.557Z,10.10
2023-04-24T13:17:23.537Z,10.30
2023-04-24T13:19:52.431Z,10.40
2023-04-24T13:22:19.846Z,10.40
2023-04-24T13:24:49.471Z,10.30
2023-04-24T13:27:17.269Z,10.20
2023-04-24T13:29:44.881Z,10.30
2023-04-24T13:32:11.915Z,10.50
2023-04-24T13:34:39.784Z,10.40
2023-04-24T13:37:06.844Z,10.50
2023-04-24T13:39:33.699Z,10.50
2023-04-24T13:42:02.552Z,10.50
2023-04-24T13:44:30.834Z,10.40
2023-04-24T13:47:00.086Z,10.60
2023-04-24T13:49:28.165Z,10.90
2023-04-24T13:51:57.019Z,11.00
2023-04-24T13:54:26.563Z,11.40
2023-04-24T13:56:53.631Z,11.40
2023-04-24T13:59:22.581Z,11.60
2023-04-24T14:01:49.663Z,11.40
2023-04-24T14:04:16.898Z,11.30
2023-04-24T14:06:44.803Z,11.20
2023-04-24T14:09:11.567Z,11.10
2023-04-24T14:11:38.474Z,10.90
2023-04-24T14:14:05.830Z,10.90
2023-04-24T14:16:32.743Z,10.80
2023-04-24T14:18:59.725Z,11.10
2023-04-24T14:21:26.449Z,11.50
2023-04-24T14:23:53.182Z,11.60
2023-04-24T14:26:23.400Z,11.60
2023-04-24T14:28:51.128Z,11.70
2023-04-24T14:31:19.521Z,11.60
2023-04-24T14:33:46.913Z,11.50
2023-04-24T14:36:13.854Z,11.30
2023-04-24T14:38:40.692Z,11.10
2023-04-24T14:41:13.943Z,11.20
2023-04-24T14:43:44.158Z,11.10
2023-04-24T14:46:11.250Z,11.00
2023-04-24T14:48:37.992Z,11.10
2023-04-24T14:51:07.180Z,11.30
2023-04-24T14:53:34.050Z,11.10
2023-04-24T14:56:00.904Z,11.20
2023-04-24T14:58:27.682Z,11.30
2023-04-24T15:00:55.607Z,11.30
2023-04-24T15:03:23.223Z,11.20
2023-04-24T15:05:51.434Z,10.80
2023-04-24T15:08:18.303Z,10.60
2023-04-24T15:10:45.829Z,10.50
2023-04-24T15:13:12.707Z,10.30
2023-04-24T15:15:39.550Z,10.10
2023-04-24T15:18:06.805Z,10.00
2023-04-24T15:20:37.253Z,9.90
2023-04-24T15:23:06.230Z,10.10
2023-04-24T15:25:33.162Z,10.10
2023-04-24T15:28:00.134Z,10.30
2023-04-24T15:30:28.031Z,10.60
2023-04-24T15:32:54.903Z,10.60
2023-04-24T15:35:21.738Z,10.40
2023-04-24T15:37:48.622Z,10.30
2023-04-24T15:40:16.740Z,10.50
2023-04-24T15:42:44.994Z,10.40
2023-04-24T15:45:14.842Z,10.30
2023-04-24T15:47:41.699Z,10.20
2023-04-24T15:50:14.424Z,10.40
2023-04-24T15:52:41.552Z,10.50
2023-04-24T15:55:08.791Z,10.80
2023-04-24T15:57:35.644Z,10.70
2023-04-24T16:00:07.626Z,10.60
2023-04-24T16:02:34.636Z,10.50
2023-04-24T16:05:01.673Z,10.40
2023-04-24T16:07:28.418Z,10.50
2023-04-24T16:09:55.814Z,10.50
2023-04-24T16:12:22.622Z,10.70
2023-04-24T16:14:49.400Z,10.90
2023-04-24T16:17:16.146Z,10.60
2023-04-24T16:19:43.170Z,10.40
2023-04-24T16:22:09.970Z,10.50
2023-04-24T16:24:36.798Z,10.40
2023-04-24T16:27:03.720Z,10.30
2023-04-24T16:29:31.621Z,10.20
2023-04-24T16:31:58.514Z,10.30
2023-04-24T16:34:25.559Z,10.30
2023-04-24T16:36:52.376Z,10.60
2023-04-24T16:39:19.169Z,10.60
2023-04-24T16:41:45.999Z,10.60
2023-04-24T16:44:13.673Z,10.60
2023-04-24T16:46:40.474Z,10.40
2023-04-24T16:49:07.326Z,10.30
2023-04-24T16:51:34.174Z,10.20
2023-04-24T16:54:01.210Z,10.10
2023-04-24T16:56:28.019Z,10.10
2023-04-24T16:58:54.844Z,10.10
2023-04-24T17:01:21.779Z,10.10
2023-04-24T17:03:48.622Z,10.10
2023-04-24T17:06:15.630Z,10.10
2023-04-24T17:08:42.382Z,10.20
2023-04-24T17:11:09.120Z,10.30
2023-04-24T17:13:35.890Z,10.20
2023-04-24T17:16:02.711Z,10.30
2023-04-24T17:18:29.551Z,10.20
2023-04-24T17:20:56.434Z,10.20
2023-04-24T17:23:23.236Z,10.10
2023-04-24T17:25:49.989Z,9.90
2023-04-24T17:28:29.534Z,9.80
2023-04-24T17:30:58.354Z,9.70
2023-04-24T17:33:30.635Z,9.70
2023-04-24T17:35:59.708Z,9.60
2023-04-24T17:38:26.560Z,9.60
2023-04-24T17:40:53.679Z,9.70
2023-04-24T17:43:21.179Z,9.60
2023-04-24T17:45:50.883Z,9.50
2023-04-24T17:48:19.902Z,9.50
2023-04-24T17:50:46.712Z,9.60
2023-04-24T17:53:13.698Z,9.50
2023-04-24T17:55:43.655Z,9.50
2023-04-24T17:58:11.571Z,9.40
2023-04-24T18:00:39.410Z,9.40
2023-04-24T18:03:09.413Z,9.50
2023-04-24T18:05:38.775Z,9.60
2023-04-24T18:08:07.354Z,9.40
2023-04-24T18:10:37.906Z,9.40
2023-04-24T18:13:07.021Z,9.40
2023-04-24T18:15:35.862Z,9.40
2023-04-24T18:18:02.784Z,9.50
2023-04-24T18:20:29.673Z,9.50
2023-04-24T18:22:56.422Z,9.50
2023-04-24T18:25:29.170Z,9.50
2023-04-24T18:27:55.955Z,9.50
2023-04-24T18:30:24.395Z,9.40
2023-04-24T18:32:53.603Z,9.40
2023-04-24T18:35:22.313Z,9.30
2023-04-24T18:37:50.220Z,9.30
2023-04-24T18:40:18.743Z,9.30
2023-04-24T18:42:45.898Z,9.30
2023-04-24T18:45:15.023Z,9.30
2023-04-24T18:47:43.669Z,9.30
2023-04-24T18:50:12.293Z,9.10
2023-04-24T18:52:39.210Z,9.20
2023-04-24T18:55:07.098Z,9.20
2023-04-24T18:57:34.085Z,9.20
2023-04-24T19:00:00.998Z,9.20
2023-04-24T19:02:28.274Z,9.10
2023-04-24T19:04:55.298Z,9.10
2023-04-24T19:07:22.127Z,9.00
2023-04-24T19:09:48.926Z,9.10
2023-04-24T19:12:16.916Z,9.00
2023-04-24T19:14:43.973Z,9.00
2023-04-24T19:17:11.996Z,8.90
2023-04-24T19:19:38.775Z,8.80
2023-04-24T19:22:07.473Z,8.80
2023-04-24T19:24:34.329Z,8.80
2023-04-24T19:27:01.662Z,8.80
2023-04-24T19:29:28.651Z,8.90
2023-04-24T19:31:57.840Z,8.90
2023-04-24T19:34:26.024Z,8.80
2023-04-24T19:36:53.016Z,8.80
2023-04-24T19:39:19.885Z,8.80
2023-04-24T19:41:46.655Z,8.80
2023-04-24T19:44:14.644Z,8.70
2023-04-24T19:46:41.458Z,8.60
2023-04-24T19:49:08.196Z,8.50
2023-04-24T19:51:35.868Z,8.60
2023-04-24T19:54:05.332Z,8.50
2023-04-24T19:56:32.679Z,8.60
2023-04-24T19:58:59.448Z,8.50
2023-04-24T20:01:26.343Z,8.50
2023-04-24T20:03:53.146Z,8.50
2023-04-24T20:06:20.224Z,8.30
2023-04-24T20:08:47.070Z,8.40
2023-04-24T20:11:14.995Z,8.30
2023-04-24T20:13:41.754Z,8.30
2023-04-24T20:16:11.150Z,8.30
2023-04-24T20:18:38.309Z,8.40
2023-04-24T20:21:06.181Z,8.30
2023-04-24T20:23:32.952Z,8.30
2023-04-24T20:25:59.963Z,8.30
2023-04-24T20:28:29.962Z,8.30
2023-04-24T20:30:58.411Z,8.30
2023-04-24T20:33:28.214Z,8.30
2023-04-24T20:35:55.540Z,8.30
2023-04-24T20:38:24.255Z,8.40
2023-04-24T20:40:57.118Z,8.30
2023-04-24T20:43:28.826Z,8.30
2023-04-24T20:45:57.666Z,8.30
2023-04-24T20:48:25.563Z,8.30
2023-04-24T20:50:53.817Z,8.30
2023-04-24T20:53:21.270Z,8.40
2023-04-24T20:55:51.104Z,8.30
2023-04-24T20:58:22.147Z,8.30
2023-04-24T21:00:49.696Z,8.30
2023-04-24T21:03:16.876Z,8.30
2023-04-24T21:05:43.803Z,8.30
2023-04-24T21:08:10.618Z,8.20
2023-04-24T21:10:37.427Z,8.20
2023-04-24T21:13:04.507Z,8.20
2023-04-24T21:15:31.535Z,8.20
2023-04-24T21:17:58.338Z,8.30
2023-04-24T21:20:25.377Z,8.30
2023-04-24T21:22:52.231Z,8.20
2023-04-24T21:25:19.119Z,8.30
2023-04-24T21:27:46.123Z,8.20
2023-04-24T21:30:13.179Z,8.20
2023-04-24T21:32:40.673Z,8.10
2023-04-24T21:35:08.101Z,8.20
2023-04-24T21:37:38.481Z,8.10
2023-04-24T21:40:12.137Z,8.20
2023-04-24T21:42:39.661Z,8.10
2023-04-24T21:45:07.244Z,8.00
2023-04-24T21:47:34.040Z,7.90
2023-04-24T21:50:00.937Z,7.90
2023-04-24T21:52:27.849Z,7.90
2023-04-24T21:54:54.675Z,7.80
2023-04-24T21:57:21.794Z,7.90
2023-04-24T21:59:48.728Z,7.90
2023-04-24T22:02:15.533Z,7.80
2023-04-24T22:04:43.000Z,7.80
2023-04-24T22:07:09.968Z,7.90
2023-04-24T22:09:36.705Z,7.90
2023-04-24T22:12:05.394Z,7.90
2023-04-24T22:14:32.312Z,7.90
2023-04-24T22:16:59.169Z,7.80
2023-04-24T22:19:28.078Z,7.80
2023-04-24T22:21:54.964Z,7.70
2023-04-24T22:24:21.753Z,7.80
2023-04-24T22:26:48.733Z,7.70
2023-04-24T22:29:15.422Z,7.70
2023-04-24T22:31:42.414Z,7.60
2023-04-24T22:34:09.428Z,7.70
2023-04-24T22:36:36.790Z,7.70
2023-04-24T22:39:05.410Z,7.60
2023-04-24T22:41:32.277Z,7.60
2023-04-24T22:43:59.145Z,7.60
2023-04-24T22:46:26.098Z,7.50
2023-04-24T22:48:52.852Z,7.50
2023-04-24T22:51:19.576Z,7.50
2023-04-24T22:53:46.738Z,7.50
2023-04-24T22:56:13.612Z,7.50
2023-04-24T22:58:40.789Z,7.50
2023-04-24T23:01:07.569Z,7.50
2023-04-24T23:03:36.053Z,7.50
2023-04-24T23:06:02.951Z,7.60
2023-04-24T23:08:30.619Z,7.60
2023-04-24T23:10:57.585Z,7.50
2023-04-24T23:13:24.622Z,7.60
2023-04-24T23:15:54.740Z,7.60
2023-04-24T23:18:21.976Z,7.60
2023-04-24T23:20:49.815Z,7.60
2023-04-24T23:23:16.730Z,7.50
2023-04-24T23:25:43.724Z,7.60
2023-04-24T23:28:10.620Z,7.60
2023-04-24T23:30:37.362Z,7.70
2023-04-24T23:33:04.889Z,7.70
2023-04-24T23:35:31.879Z,7.80
2023-04-24T23:37:58.642Z,7.80
2023-04-24T23:40:25.479Z,7.80
2023-04-24T23:43:05.769Z,7.80
2023-04-24T23:45:34.409Z,7.80
2023-04-24T23:48:01.418Z,7.80
2023-04-24T23:50:28.248Z,7.80
2023-04-24T23:52:55.029Z,7.70
2023-04-24T23:55:22.049Z,7.70
2023-04-24T23:57:48.760Z,7.70
